Amalga, UT

1:08 PM MDT on September 01, 2014 (GMT -0600)
Northwest Smithfield | Change Station
CLOSE
Current Station
Personal Weather Station
Location: Smithfield, UT
Elevation: 4590 ft
Nearby Weather Stations

Elev 4590 ft 41.84 °N, 111.84 °W | Updated 4 minutes ago

Clear
Clear
70.3 °F
Feels Like 77 °F
N
1.1
Wind Variable Wind from West

Today
High -- | Low -- °F
--% Chance of Precip.
Yesterday
High -- | Low -- °F
Precip. -- in
6:53 AM 8:00 PM
Waxing Crescent, 43% visible
Pressure 29.99 in
Visibility 10.0 miles
Clouds Clear
Heat Index 77 °F
Dew Point 43 °F
Humidity 37%
Rainfall 0.00 in
Snow Depth Not available.
UV 9 out of 12
Pollen 8.00 out of 12
PM2.5 Good
Flu Activity Not available.
METAR KLGU 011851Z AUTO VRB03KT 10SM CLR 22/04 A3010 RMK AO2 SLP155 T02170044

More Conditions Fewer Conditions

Pressure 29.99 in
Visibility 10.0 miles
Clouds Clear
Heat Index 77 °F
Dew Point 43 °F
Humidity 37%
Rainfall 0.00 in
Snow Depth Not available.
UV 9 out of 12
Pollen 8.00 out of 12
PM2.5 Good
Flu Activity Not available.
METAR KLGU 011851Z AUTO VRB03KT 10SM CLR 22/04 A3010 RMK AO2 SLP155 T02170044

More Conditions Fewer Conditions

10-Day Weather Forecast

Almanac

Astronomy

Sep. 01, 2014 Rise Set
Actual Time 6:53 AM MDT 8:00 PM MDT
Civil Twilight 6:24 AM MDT 8:29 PM MDT
Nautical Twilight 5:50 AM MDT 9:03 PM MDT
Astronomical Twilight 5:14 AM MDT 9:39 PM MDT
Moon 1:48 PM MDT 11:58 PM MDT
Length of Visible Light 14h 04m
Length of Day
13h 07m
Tomorrow will be 2m 42s shorter.
Waxing Crescent, 43% of the Moon is Illuminated
Today
Waxing Crescent
Sep 2
First Quarter
Sep 8
Full
Sep 15
Last Quarter
Sep 24
New

Today's Extremes

State Highs State Lows

Community

WunderPhotos

Upload Photos

1,749,367 photos uploaded!

WunderBlogs® & News

Nearby

Air Quality

  Air Quality AQ Index Pollutant
Yesterday Good
OZONE
Yesterday Good
PM2.5
Current Good
PM2.5

Snow Depth

Station Depth Elevation
Ben Lomond Trail 1 in 6000 ft
Ben Lomond Peak 0 in 8000 ft
Parrish Creek 0 in 7740 ft
Louis Meadow 0 in 6700 ft
Smith & Morehouse 0 in 7600 ft

Earthquake Activity

City Distance Mag. Time & Date
Driggs, Idaho 142 miles 3.8 2:09 PM MDT
2014-08-30
Minimum magnitude displayed is 2.5.

Coastal Water Temperatures

Place Temperature
No Stations Reporting

Nearby Weather Stations